sensor_id;sensor_type;location;lat;lon;timestamp;temperature;humidity
37642;DHT22;23486;51.956;5.888;2023-01-28T00:01:10;3.60;99.90
37642;DHT22;23486;51.956;5.888;2023-01-28T00:03:37;3.60;99.90
37642;DHT22;23486;51.956;5.888;2023-01-28T00:06:04;3.60;99.90
37642;DHT22;23486;51.956;5.888;2023-01-28T00:08:31;3.60;99.90
37642;DHT22;23486;51.956;5.888;2023-01-28T00:11:02;3.60;99.90
37642;DHT22;23486;51.956;5.888;2023-01-28T00:13:29;3.60;99.90
37642;DHT22;23486;51.956;5.888;2023-01-28T00:15:59;3.60;99.90
37642;DHT22;23486;51.956;5.888;2023-01-28T00:18:27;3.60;99.90
37642;DHT22;23486;51.956;5.888;2023-01-28T00:21:12;3.60;99.90
37642;DHT22;23486;51.956;5.888;2023-01-28T00:23:40;3.60;99.90
37642;DHT22;23486;51.956;5.888;2023-01-28T00:26:11;3.60;99.90
37642;DHT22;23486;51.956;5.888;2023-01-28T00:28:38;3.60;99.90
37642;DHT22;23486;51.956;5.888;2023-01-28T00:31:08;3.60;99.90
37642;DHT22;23486;51.956;5.888;2023-01-28T00:33:37;3.70;99.90
37642;DHT22;23486;51.956;5.888;2023-01-28T00:36:03;3.70;99.90
37642;DHT22;23486;51.956;5.888;2023-01-28T00:38:30;3.70;99.90
37642;DHT22;23486;51.956;5.888;2023-01-28T00:41:09;3.70;99.90
37642;DHT22;23486;51.956;5.888;2023-01-28T00:43:36;3.70;99.90
37642;DHT22;23486;51.956;5.888;2023-01-28T00:46:06;3.70;99.90
37642;DHT22;23486;51.956;5.888;2023-01-28T00:48:32;3.70;99.90
37642;DHT22;23486;51.956;5.888;2023-01-28T00:51:01;3.70;99.90
37642;DHT22;23486;51.956;5.888;2023-01-28T00:53:27;3.70;99.90
37642;DHT22;23486;51.956;5.888;2023-01-28T00:55:53;3.70;99.90
37642;DHT22;23486;51.956;5.888;2023-01-28T00:58:20;3.70;99.90
37642;DHT22;23486;51.956;5.888;2023-01-28T01:00:45;3.70;99.90
37642;DHT22;23486;51.956;5.888;2023-01-28T01:03:14;3.70;99.90
37642;DHT22;23486;51.956;5.888;2023-01-28T01:05:39;3.70;99.90
37642;DHT22;23486;51.956;5.888;2023-01-28T01:08:05;3.70;99.90
37642;DHT22;23486;51.956;5.888;2023-01-28T01:10:31;3.70;99.90
37642;DHT22;23486;51.956;5.888;2023-01-28T01:13:00;3.70;99.90
37642;DHT22;23486;51.956;5.888;2023-01-28T01:15:25;3.60;99.90
37642;DHT22;23486;51.956;5.888;2023-01-28T01:17:51;3.60;99.90
37642;DHT22;23486;51.956;5.888;2023-01-28T01:20:24;3.60;99.90
37642;DHT22;23486;51.956;5.888;2023-01-28T01:22:50;3.60;99.90
37642;DHT22;23486;51.956;5.888;2023-01-28T01:25:16;3.60;99.90
37642;DHT22;23486;51.956;5.888;2023-01-28T01:27:43;3.60;99.90
37642;DHT22;23486;51.956;5.888;2023-01-28T01:30:13;3.50;99.90
37642;DHT22;23486;51.956;5.888;2023-01-28T01:32:39;3.50;99.90
37642;DHT22;23486;51.956;5.888;2023-01-28T01:35:08;3.50;99.90
37642;DHT22;23486;51.956;5.888;2023-01-28T01:37:37;3.50;99.90
37642;DHT22;23486;51.956;5.888;2023-01-28T01:40:04;3.50;99.90
37642;DHT22;23486;51.956;5.888;2023-01-28T01:42:31;3.50;99.90
37642;DHT22;23486;51.956;5.888;2023-01-28T01:45:07;3.50;99.90
37642;DHT22;23486;51.956;5.888;2023-01-28T01:50:40;3.50;99.90
37642;DHT22;23486;51.956;5.888;2023-01-28T01:53:15;3.60;99.90
37642;DHT22;23486;51.956;5.888;2023-01-28T01:55:46;3.50;99.90
37642;DHT22;23486;51.956;5.888;2023-01-28T01:58:18;3.50;99.90
37642;DHT22;23486;51.956;5.888;2023-01-28T02:00:46;3.50;99.90
37642;DHT22;23486;51.956;5.888;2023-01-28T02:03:11;3.50;99.90
37642;DHT22;23486;51.956;5.888;2023-01-28T02:05:38;3.50;99.90
37642;DHT22;23486;51.956;5.888;2023-01-28T02:08:04;3.40;99.90
37642;DHT22;23486;51.956;5.888;2023-01-28T02:10:54;3.40;99.90
37642;DHT22;23486;51.956;5.888;2023-01-28T02:13:27;3.40;99.90
37642;DHT22;23486;51.956;5.888;2023-01-28T02:15:54;3.40;99.90
37642;DHT22;23486;51.956;5.888;2023-01-28T02:18:20;3.40;99.90
37642;DHT22;23486;51.956;5.888;2023-01-28T02:21:19;3.40;99.90
37642;DHT22;23486;51.956;5.888;2023-01-28T02:24:04;3.40;99.90
37642;DHT22;23486;51.956;5.888;2023-01-28T02:33:04;3.40;99.90
37642;DHT22;23486;51.956;5.888;2023-01-28T02:35:38;3.40;99.90
37642;DHT22;23486;51.956;5.888;2023-01-28T02:38:17;3.40;99.90
37642;DHT22;23486;51.956;5.888;2023-01-28T02:40:51;3.40;99.90
37642;DHT22;23486;51.956;5.888;2023-01-28T02:43:40;3.40;99.90
37642;DHT22;23486;51.956;5.888;2023-01-28T02:52:28;3.30;99.90
37642;DHT22;23486;51.956;5.888;2023-01-28T02:58:15;3.20;99.90
37642;DHT22;23486;51.956;5.888;2023-01-28T03:00:45;3.20;99.90
37642;DHT22;23486;51.956;5.888;2023-01-28T03:03:14;3.20;99.90
37642;DHT22;23486;51.956;5.888;2023-01-28T03:05:53;3.20;99.90
37642;DHT22;23486;51.956;5.888;2023-01-28T03:08:49;3.20;99.90
37642;DHT22;23486;51.956;5.888;2023-01-28T03:11:38;3.20;99.90
37642;DHT22;23486;51.956;5.888;2023-01-28T03:14:24;3.20;99.90
37642;DHT22;23486;51.956;5.888;2023-01-28T03:17:18;3.10;99.90
37642;DHT22;23486;51.956;5.888;2023-01-28T03:20:04;3.10;99.90
37642;DHT22;23486;51.956;5.888;2023-01-28T03:22:51;3.10;99.90
37642;DHT22;23486;51.956;5.888;2023-01-28T03:25:37;3.20;99.90
37642;DHT22;23486;51.956;5.888;2023-01-28T03:28:23;3.10;99.90
37642;DHT22;23486;51.956;5.888;2023-01-28T03:31:11;3.00;99.90
37642;DHT22;23486;51.956;5.888;2023-01-28T03:33:57;3.00;99.90
37642;DHT22;23486;51.956;5.888;2023-01-28T03:36:43;3.00;99.90
37642;DHT22;23486;51.956;5.888;2023-01-28T03:39:34;3.00;99.90
37642;DHT22;23486;51.956;5.888;2023-01-28T03:42:01;3.00;99.90
37642;DHT22;23486;51.956;5.888;2023-01-28T03:44:27;3.00;99.90
37642;DHT22;23486;51.956;5.888;2023-01-28T03:47:15;3.00;99.90
37642;DHT22;23486;51.956;5.888;2023-01-28T03:49:47;3.00;99.90
37642;DHT22;23486;51.956;5.888;2023-01-28T03:52:18;3.00;99.90
37642;DHT22;23486;51.956;5.888;2023-01-28T03:54:45;3.10;99.90
37642;DHT22;23486;51.956;5.888;2023-01-28T03:57:19;3.00;99.90
37642;DHT22;23486;51.956;5.888;2023-01-28T03:59:45;3.10;99.90
37642;DHT22;23486;51.956;5.888;2023-01-28T04:02:14;3.00;99.90
37642;DHT22;23486;51.956;5.888;2023-01-28T04:04:40;3.00;99.90
37642;DHT22;23486;51.956;5.888;2023-01-28T04:07:08;3.00;99.90
37642;DHT22;23486;51.956;5.888;2023-01-28T04:09:37;3.00;99.90
37642;DHT22;23486;51.956;5.888;2023-01-28T04:12:04;3.00;99.90
37642;DHT22;23486;51.956;5.888;2023-01-28T04:14:30;3.00;99.90
37642;DHT22;23486;51.956;5.888;2023-01-28T04:16:55;3.00;99.90
37642;DHT22;23486;51.956;5.888;2023-01-28T04:19:21;3.00;99.90
37642;DHT22;23486;51.956;5.888;2023-01-28T04:21:47;3.00;99.90
37642;DHT22;23486;51.956;5.888;2023-01-28T04:24:14;3.00;99.90
37642;DHT22;23486;51.956;5.888;2023-01-28T04:26:41;3.00;99.90
37642;DHT22;23486;51.956;5.888;2023-01-28T04:29:07;3.00;99.90
37642;DHT22;23486;51.956;5.888;2023-01-28T04:31:33;3.10;99.90
37642;DHT22;23486;51.956;5.888;2023-01-28T04:33:59;3.00;99.90
37642;DHT22;23486;51.956;5.888;2023-01-28T04:36:25;3.00;99.90
37642;DHT22;23486;51.956;5.888;2023-01-28T04:38:51;3.00;99.90
37642;DHT22;23486;51.956;5.888;2023-01-28T04:41:16;2.90;99.90
37642;DHT22;23486;51.956;5.888;2023-01-28T04:43:42;2.90;99.90
37642;DHT22;23486;51.956;5.888;2023-01-28T04:46:10;2.90;99.90
37642;DHT22;23486;51.956;5.888;2023-01-28T04:48:36;2.90;99.90
37642;DHT22;23486;51.956;5.888;2023-01-28T04:51:02;2.90;99.90
37642;DHT22;23486;51.956;5.888;2023-01-28T04:53:28;2.80;99.90
37642;DHT22;23486;51.956;5.888;2023-01-28T04:55:57;2.80;99.90
37642;DHT22;23486;51.956;5.888;2023-01-28T04:58:23;2.80;99.90
37642;DHT22;23486;51.956;5.888;2023-01-28T05:00:56;2.80;99.90
37642;DHT22;23486;51.956;5.888;2023-01-28T05:03:23;2.80;99.90
37642;DHT22;23486;51.956;5.888;2023-01-28T05:05:49;2.80;99.90
37642;DHT22;23486;51.956;5.888;2023-01-28T05:08:14;2.80;99.90
37642;DHT22;23486;51.956;5.888;2023-01-28T05:10:43;2.80;99.90
37642;DHT22;23486;51.956;5.888;2023-01-28T05:13:12;2.80;99.90
37642;DHT22;23486;51.956;5.888;2023-01-28T05:15:37;2.80;99.90
37642;DHT22;23486;51.956;5.888;2023-01-28T05:18:03;2.80;99.90
37642;DHT22;23486;51.956;5.888;2023-01-28T05:20:29;2.80;99.90
37642;DHT22;23486;51.956;5.888;2023-01-28T05:22:54;2.80;99.90
37642;DHT22;23486;51.956;5.888;2023-01-28T05:25:20;2.80;99.90
37642;DHT22;23486;51.956;5.888;2023-01-28T05:27:53;2.80;99.90
37642;DHT22;23486;51.956;5.888;2023-01-28T05:30:31;2.80;99.90
37642;DHT22;23486;51.956;5.888;2023-01-28T05:32:57;2.70;99.90
37642;DHT22;23486;51.956;5.888;2023-01-28T05:35:22;2.70;99.90
37642;DHT22;23486;51.956;5.888;2023-01-28T05:37:48;2.70;99.90
37642;DHT22;23486;51.956;5.888;2023-01-28T05:40:14;2.60;99.90
37642;DHT22;23486;51.956;5.888;2023-01-28T05:42:39;2.60;99.90
37642;DHT22;23486;51.956;5.888;2023-01-28T05:45:05;2.60;99.90
37642;DHT22;23486;51.956;5.888;2023-01-28T05:47:32;2.70;99.90
37642;DHT22;23486;51.956;5.888;2023-01-28T05:49:58;2.60;99.90
37642;DHT22;23486;51.956;5.888;2023-01-28T05:52:23;2.50;99.90
37642;DHT22;23486;51.956;5.888;2023-01-28T05:54:49;2.60;99.90
37642;DHT22;23486;51.956;5.888;2023-01-28T05:57:14;2.60;99.90
37642;DHT22;23486;51.956;5.888;2023-01-28T05:59:43;2.60;99.90
37642;DHT22;23486;51.956;5.888;2023-01-28T06:02:08;2.60;99.90
37642;DHT22;23486;51.956;5.888;2023-01-28T06:04:34;2.60;99.90
37642;DHT22;23486;51.956;5.888;2023-01-28T06:07:00;2.60;99.90
37642;DHT22;23486;51.956;5.888;2023-01-28T06:09:25;2.60;99.90
37642;DHT22;23486;51.956;5.888;2023-01-28T06:11:52;2.60;99.90
37642;DHT22;23486;51.956;5.888;2023-01-28T06:14:17;2.60;99.90
37642;DHT22;23486;51.956;5.888;2023-01-28T06:16:43;2.50;99.90
37642;DHT22;23486;51.956;5.888;2023-01-28T06:19:09;2.50;99.90
37642;DHT22;23486;51.956;5.888;2023-01-28T06:21:34;2.50;99.90
37642;DHT22;23486;51.956;5.888;2023-01-28T06:24:00;2.50;99.90
37642;DHT22;23486;51.956;5.888;2023-01-28T06:26:25;2.50;99.90
37642;DHT22;23486;51.956;5.888;2023-01-28T06:28:51;2.50;99.90
37642;DHT22;23486;51.956;5.888;2023-01-28T06:31:16;2.50;99.90
37642;DHT22;23486;51.956;5.888;2023-01-28T06:33:43;2.50;99.90
37642;DHT22;23486;51.956;5.888;2023-01-28T06:36:09;2.40;99.90
37642;DHT22;23486;51.956;5.888;2023-01-28T06:38:34;2.40;99.90
37642;DHT22;23486;51.956;5.888;2023-01-28T06:41:00;2.40;99.90
37642;DHT22;23486;51.956;5.888;2023-01-28T06:43:26;2.40;99.90
37642;DHT22;23486;51.956;5.888;2023-01-28T06:45:58;2.40;99.90
37642;DHT22;23486;51.956;5.888;2023-01-28T06:48:24;2.40;99.90
37642;DHT22;23486;51.956;5.888;2023-01-28T06:50:53;2.40;99.90
37642;DHT22;23486;51.956;5.888;2023-01-28T06:53:19;2.40;99.90
37642;DHT22;23486;51.956;5.888;2023-01-28T06:55:45;2.40;99.90
37642;DHT22;23486;51.956;5.888;2023-01-28T06:58:10;2.50;99.90
37642;DHT22;23486;51.956;5.888;2023-01-28T07:00:36;2.50;99.90
37642;DHT22;23486;51.956;5.888;2023-01-28T07:03:03;2.40;99.90
37642;DHT22;23486;51.956;5.888;2023-01-28T07:05:29;2.40;99.90
37642;DHT22;23486;51.956;5.888;2023-01-28T07:07:55;2.40;99.90
37642;DHT22;23486;51.956;5.888;2023-01-28T07:10:20;2.30;99.90
37642;DHT22;23486;51.956;5.888;2023-01-28T07:12:46;2.30;99.90
37642;DHT22;23486;51.956;5.888;2023-01-28T07:15:12;2.20;99.90
37642;DHT22;23486;51.956;5.888;2023-01-28T07:17:40;2.20;99.90
37642;DHT22;23486;51.956;5.888;2023-01-28T07:20:07;2.20;99.90
37642;DHT22;23486;51.956;5.888;2023-01-28T07:22:37;2.20;99.90
37642;DHT22;23486;51.956;5.888;2023-01-28T07:25:05;2.30;99.90
37642;DHT22;23486;51.956;5.888;2023-01-28T07:27:31;2.30;99.90
37642;DHT22;23486;51.956;5.888;2023-01-28T07:29:56;2.30;99.90
37642;DHT22;23486;51.956;5.888;2023-01-28T07:32:22;2.30;99.90
37642;DHT22;23486;51.956;5.888;2023-01-28T07:34:48;2.30;99.90
37642;DHT22;23486;51.956;5.888;2023-01-28T07:37:14;2.30;99.90
37642;DHT22;23486;51.956;5.888;2023-01-28T07:39:40;2.30;99.90
37642;DHT22;23486;51.956;5.888;2023-01-28T07:42:07;2.30;99.90
37642;DHT22;23486;51.956;5.888;2023-01-28T07:44:34;2.30;99.90
37642;DHT22;23486;51.956;5.888;2023-01-28T07:47:01;2.30;99.90
37642;DHT22;23486;51.956;5.888;2023-01-28T07:49:27;2.30;99.90
37642;DHT22;23486;51.956;5.888;2023-01-28T07:51:56;2.30;99.90
37642;DHT22;23486;51.956;5.888;2023-01-28T07:54:21;2.30;99.90
37642;DHT22;23486;51.956;5.888;2023-01-28T07:56:50;2.30;99.90
37642;DHT22;23486;51.956;5.888;2023-01-28T07:59:15;2.30;99.90
37642;DHT22;23486;51.956;5.888;2023-01-28T08:01:41;2.40;99.90
37642;DHT22;23486;51.956;5.888;2023-01-28T08:04:06;2.40;99.90
37642;DHT22;23486;51.956;5.888;2023-01-28T08:06:32;2.40;99.90
37642;DHT22;23486;51.956;5.888;2023-01-28T08:09:05;2.40;99.90
37642;DHT22;23486;51.956;5.888;2023-01-28T08:11:33;2.40;99.90
37642;DHT22;23486;51.956;5.888;2023-01-28T08:14:01;2.40;99.90
37642;DHT22;23486;51.956;5.888;2023-01-28T08:16:27;2.40;99.90
37642;DHT22;23486;51.956;5.888;2023-01-28T08:18:53;2.40;99.90
37642;DHT22;23486;51.956;5.888;2023-01-28T08:21:19;2.40;99.90
37642;DHT22;23486;51.956;5.888;2023-01-28T08:23:45;2.40;99.90
37642;DHT22;23486;51.956;5.888;2023-01-28T08:26:10;2.40;99.90
37642;DHT22;23486;51.956;5.888;2023-01-28T08:28:36;2.40;99.90
37642;DHT22;23486;51.956;5.888;2023-01-28T08:31:02;2.40;99.90
37642;DHT22;23486;51.956;5.888;2023-01-28T08:33:30;2.40;99.90
37642;DHT22;23486;51.956;5.888;2023-01-28T08:35:57;2.40;99.90
37642;DHT22;23486;51.956;5.888;2023-01-28T08:38:22;2.50;99.90
37642;DHT22;23486;51.956;5.888;2023-01-28T08:40:48;2.50;99.90
37642;DHT22;23486;51.956;5.888;2023-01-28T08:43:15;2.50;99.90
37642;DHT22;23486;51.956;5.888;2023-01-28T08:45:40;2.50;99.90
37642;DHT22;23486;51.956;5.888;2023-01-28T08:48:09;2.40;99.90
37642;DHT22;23486;51.956;5.888;2023-01-28T08:50:37;2.40;99.90
37642;DHT22;23486;51.956;5.888;2023-01-28T08:53:05;2.50;99.90
37642;DHT22;23486;51.956;5.888;2023-01-28T08:55:32;2.40;99.90
37642;DHT22;23486;51.956;5.888;2023-01-28T08:58:03;2.40;99.90
37642;DHT22;23486;51.956;5.888;2023-01-28T09:00:29;2.40;99.90
37642;DHT22;23486;51.956;5.888;2023-01-28T09:02:55;2.40;99.90
37642;DHT22;23486;51.956;5.888;2023-01-28T09:05:21;2.30;99.90
37642;DHT22;23486;51.956;5.888;2023-01-28T09:07:47;2.40;99.90
37642;DHT22;23486;51.956;5.888;2023-01-28T09:10:12;2.40;99.90
37642;DHT22;23486;51.956;5.888;2023-01-28T09:12:42;2.30;99.90
37642;DHT22;23486;51.956;5.888;2023-01-28T09:15:08;2.40;99.90
37642;DHT22;23486;51.956;5.888;2023-01-28T09:17:36;2.40;99.90
37642;DHT22;23486;51.956;5.888;2023-01-28T09:20:03;2.50;99.90
37642;DHT22;23486;51.956;5.888;2023-01-28T09:22:35;2.50;99.90
37642;DHT22;23486;51.956;5.888;2023-01-28T09:25:00;2.50;99.90
37642;DHT22;23486;51.956;5.888;2023-01-28T09:27:26;2.50;99.90
37642;DHT22;23486;51.956;5.888;2023-01-28T09:29:51;2.50;99.90
37642;DHT22;23486;51.956;5.888;2023-01-28T09:32:17;2.50;99.90
37642;DHT22;23486;51.956;5.888;2023-01-28T09:34:45;2.50;99.90
37642;DHT22;23486;51.956;5.888;2023-01-28T09:37:11;2.50;99.90
37642;DHT22;23486;51.956;5.888;2023-01-28T09:39:37;2.50;99.90
37642;DHT22;23486;51.956;5.888;2023-01-28T09:47:25;2.60;99.90
37642;DHT22;23486;51.956;5.888;2023-01-28T09:49:53;2.60;99.90
37642;DHT22;23486;51.956;5.888;2023-01-28T09:52:23;2.60;99.90
37642;DHT22;23486;51.956;5.888;2023-01-28T09:55:05;2.70;99.90
37642;DHT22;23486;51.956;5.888;2023-01-28T09:57:40;2.70;99.90
37642;DHT22;23486;51.956;5.888;2023-01-28T10:00:24;2.80;99.90
37642;DHT22;23486;51.956;5.888;2023-01-28T10:03:07;2.90;99.90
37642;DHT22;23486;51.956;5.888;2023-01-28T10:11:19;3.00;99.90
37642;DHT22;23486;51.956;5.888;2023-01-28T10:13:58;3.00;99.90
37642;DHT22;23486;51.956;5.888;2023-01-28T10:16:39;3.10;99.90
37642;DHT22;23486;51.956;5.888;2023-01-28T10:21:55;3.20;99.90
37642;DHT22;23486;51.956;5.888;2023-01-28T10:24:42;3.30;99.90
37642;DHT22;23486;51.956;5.888;2023-01-28T10:27:16;3.30;99.90
37642;DHT22;23486;51.956;5.888;2023-01-28T10:29:44;3.40;99.90
37642;DHT22;23486;51.956;5.888;2023-01-28T10:34:55;3.50;99.90
37642;DHT22;23486;51.956;5.888;2023-01-28T10:37:24;3.60;99.90
37642;DHT22;23486;51.956;5.888;2023-01-28T10:39:52;3.60;99.90
37642;DHT22;23486;51.956;5.888;2023-01-28T10:42:30;3.60;99.90
37642;DHT22;23486;51.956;5.888;2023-01-28T10:45:02;3.60;99.90
37642;DHT22;23486;51.956;5.888;2023-01-28T10:50:37;3.70;99.90
37642;DHT22;23486;51.956;5.888;2023-01-28T10:53:16;3.70;99.90
37642;DHT22;23486;51.956;5.888;2023-01-28T10:55:53;3.80;99.90
37642;DHT22;23486;51.956;5.888;2023-01-28T10:58:21;3.80;99.90
37642;DHT22;23486;51.956;5.888;2023-01-28T11:00:56;3.90;99.90
37642;DHT22;23486;51.956;5.888;2023-01-28T11:03:25;3.90;99.90
37642;DHT22;23486;51.956;5.888;2023-01-28T11:05:56;3.90;99.90
37642;DHT22;23486;51.956;5.888;2023-01-28T11:08:23;3.90;99.90
37642;DHT22;23486;51.956;5.888;2023-01-28T11:10:51;4.00;99.90
37642;DHT22;23486;51.956;5.888;2023-01-28T11:18:29;4.30;99.90
37642;DHT22;23486;51.956;5.888;2023-01-28T11:21:02;4.30;99.90
37642;DHT22;23486;51.956;5.888;2023-01-28T11:23:31;4.30;99.90
37642;DHT22;23486;51.956;5.888;2023-01-28T11:26:07;4.20;99.90
37642;DHT22;23486;51.956;5.888;2023-01-28T11:28:34;4.30;99.90
37642;DHT22;23486;51.956;5.888;2023-01-28T11:31:04;4.30;99.90
37642;DHT22;23486;51.956;5.888;2023-01-28T11:33:36;4.20;99.90
37642;DHT22;23486;51.956;5.888;2023-01-28T11:36:12;4.10;99.90
37642;DHT22;23486;51.956;5.888;2023-01-28T11:38:48;4.00;99.90
37642;DHT22;23486;51.956;5.888;2023-01-28T11:41:15;4.00;99.90
37642;DHT22;23486;51.956;5.888;2023-01-28T11:43:42;4.00;99.90
37642;DHT22;23486;51.956;5.888;2023-01-28T11:52:20;3.90;99.90
37642;DHT22;23486;51.956;5.888;2023-01-28T12:00:28;3.80;99.90
37642;DHT22;23486;51.956;5.888;2023-01-28T12:25:27;4.20;99.90
37642;DHT22;23486;51.956;5.888;2023-01-28T12:41:46;4.50;99.90
37642;DHT22;23486;51.956;5.888;2023-01-28T12:44:27;4.50;99.90
37642;DHT22;23486;51.956;5.888;2023-01-28T12:47:01;4.50;99.90
37642;DHT22;23486;51.956;5.888;2023-01-28T12:49:41;4.60;99.90
37642;DHT22;23486;51.956;5.888;2023-01-28T12:52:36;4.60;99.90
37642;DHT22;23486;51.956;5.888;2023-01-28T12:55:39;4.70;99.90
37642;DHT22;23486;51.956;5.888;2023-01-28T12:58:12;4.80;99.90
37642;DHT22;23486;51.956;5.888;2023-01-28T13:00:45;4.90;99.90
37642;DHT22;23486;51.956;5.888;2023-01-28T13:03:34;4.90;99.90
37642;DHT22;23486;51.956;5.888;2023-01-28T13:06:05;5.00;99.90
37642;DHT22;23486;51.956;5.888;2023-01-28T13:08:36;5.10;99.90
37642;DHT22;23486;51.956;5.888;2023-01-28T13:11:03;5.20;99.90
37642;DHT22;23486;51.956;5.888;2023-01-28T13:13:32;5.20;99.90
37642;DHT22;23486;51.956;5.888;2023-01-28T13:16:00;5.20;99.90
37642;DHT22;23486;51.956;5.888;2023-01-28T13:18:42;5.20;99.90
37642;DHT22;23486;51.956;5.888;2023-01-28T13:21:33;5.20;99.90
37642;DHT22;23486;51.956;5.888;2023-01-28T13:26:45;5.20;99.90
37642;DHT22;23486;51.956;5.888;2023-01-28T13:31:42;5.20;99.90
37642;DHT22;23486;51.956;5.888;2023-01-28T13:36:51;5.10;99.90
37642;DHT22;23486;51.956;5.888;2023-01-28T13:39:22;5.10;99.90
37642;DHT22;23486;51.956;5.888;2023-01-28T13:41:49;5.10;99.90
37642;DHT22;23486;51.956;5.888;2023-01-28T13:46:50;5.10;99.90
37642;DHT22;23486;51.956;5.888;2023-01-28T13:49:22;5.10;99.90
37642;DHT22;23486;51.956;5.888;2023-01-28T13:52:22;5.10;99.90
37642;DHT22;23486;51.956;5.888;2023-01-28T13:54:54;5.10;99.90
37642;DHT22;23486;51.956;5.888;2023-01-28T14:06:18;5.00;99.90
37642;DHT22;23486;51.956;5.888;2023-01-28T14:09:18;4.90;99.90
37642;DHT22;23486;51.956;5.888;2023-01-28T14:17:09;5.00;99.90
37642;DHT22;23486;51.956;5.888;2023-01-28T14:19:41;5.00;99.90
37642;DHT22;23486;51.956;5.888;2023-01-28T14:22:09;4.90;99.90
37642;DHT22;23486;51.956;5.888;2023-01-28T14:24:40;4.90;99.90
37642;DHT22;23486;51.956;5.888;2023-01-28T14:30:32;4.90;99.90
37642;DHT22;23486;51.956;5.888;2023-01-28T14:33:01;4.90;99.90
37642;DHT22;23486;51.956;5.888;2023-01-28T14:35:31;4.90;99.90
37642;DHT22;23486;51.956;5.888;2023-01-28T14:37:58;4.80;99.90
37642;DHT22;23486;51.956;5.888;2023-01-28T14:40:25;4.80;99.90
37642;DHT22;23486;51.956;5.888;2023-01-28T14:42:54;4.70;99.90
37642;DHT22;23486;51.956;5.888;2023-01-28T14:45:33;4.70;99.90
37642;DHT22;23486;51.956;5.888;2023-01-28T14:48:24;4.60;99.90
37642;DHT22;23486;51.956;5.888;2023-01-28T14:51:01;4.50;99.90
37642;DHT22;23486;51.956;5.888;2023-01-28T14:59:27;4.40;99.90
37642;DHT22;23486;51.956;5.888;2023-01-28T15:01:57;4.40;99.90
37642;DHT22;23486;51.956;5.888;2023-01-28T15:04:33;4.30;99.90
37642;DHT22;23486;51.956;5.888;2023-01-28T15:07:23;4.30;99.90
37642;DHT22;23486;51.956;5.888;2023-01-28T15:10:06;4.20;99.90
37642;DHT22;23486;51.956;5.888;2023-01-28T15:12:38;4.20;99.90
37642;DHT22;23486;51.956;5.888;2023-01-28T15:17:53;4.10;99.90
37642;DHT22;23486;51.956;5.888;2023-01-28T15:20:22;4.10;99.90
37642;DHT22;23486;51.956;5.888;2023-01-28T15:22:51;4.00;99.90
37642;DHT22;23486;51.956;5.888;2023-01-28T15:25:21;4.00;99.90
37642;DHT22;23486;51.956;5.888;2023-01-28T15:27:49;3.90;99.90
37642;DHT22;23486;51.956;5.888;2023-01-28T15:30:23;3.90;99.90
37642;DHT22;23486;51.956;5.888;2023-01-28T15:33:05;3.80;99.90
37642;DHT22;23486;51.956;5.888;2023-01-28T15:35:31;3.80;99.90
37642;DHT22;23486;51.956;5.888;2023-01-28T15:38:03;3.80;99.90
37642;DHT22;23486;51.956;5.888;2023-01-28T15:40:29;3.70;99.90
37642;DHT22;23486;51.956;5.888;2023-01-28T15:42:55;3.70;99.90
37642;DHT22;23486;51.956;5.888;2023-01-28T15:45:23;3.60;99.90
37642;DHT22;23486;51.956;5.888;2023-01-28T15:47:52;3.50;99.90
37642;DHT22;23486;51.956;5.888;2023-01-28T15:50:26;3.50;99.90
37642;DHT22;23486;51.956;5.888;2023-01-28T15:52:52;3.50;99.90
37642;DHT22;23486;51.956;5.888;2023-01-28T15:55:43;3.40;99.90
37642;DHT22;23486;51.956;5.888;2023-01-28T15:58:24;3.30;99.90
37642;DHT22;23486;51.956;5.888;2023-01-28T16:03:33;3.20;99.90
37642;DHT22;23486;51.956;5.888;2023-01-28T16:06:03;3.20;99.90
37642;DHT22;23486;51.956;5.888;2023-01-28T16:08:38;3.10;99.90
37642;DHT22;23486;51.956;5.888;2023-01-28T16:11:04;3.00;99.90
37642;DHT22;23486;51.956;5.888;2023-01-28T16:13:32;3.00;99.90
37642;DHT22;23486;51.956;5.888;2023-01-28T16:15:59;2.80;99.90
37642;DHT22;23486;51.956;5.888;2023-01-28T16:18:45;2.80;99.90
37642;DHT22;23486;51.956;5.888;2023-01-28T16:21:33;2.70;99.90
37642;DHT22;23486;51.956;5.888;2023-01-28T16:27:18;2.60;99.90
37642;DHT22;23486;51.956;5.888;2023-01-28T16:29:44;2.50;99.90
37642;DHT22;23486;51.956;5.888;2023-01-28T16:32:45;2.50;99.90
37642;DHT22;23486;51.956;5.888;2023-01-28T16:37:39;2.40;99.90
37642;DHT22;23486;51.956;5.888;2023-01-28T16:40:05;2.30;99.90
37642;DHT22;23486;51.956;5.888;2023-01-28T16:42:31;2.40;99.90
37642;DHT22;23486;51.956;5.888;2023-01-28T16:44:59;2.40;99.90
37642;DHT22;23486;51.956;5.888;2023-01-28T16:47:25;2.40;99.90
37642;DHT22;23486;51.956;5.888;2023-01-28T16:49:51;2.40;99.90
37642;DHT22;23486;51.956;5.888;2023-01-28T16:52:16;2.50;99.90
37642;DHT22;23486;51.956;5.888;2023-01-28T16:54:43;2.50;99.90
37642;DHT22;23486;51.956;5.888;2023-01-28T16:57:14;2.60;99.90
37642;DHT22;23486;51.956;5.888;2023-01-28T16:59:41;2.70;99.90
37642;DHT22;23486;51.956;5.888;2023-01-28T17:02:16;2.80;99.90
37642;DHT22;23486;51.956;5.888;2023-01-28T17:04:44;2.80;99.90
37642;DHT22;23486;51.956;5.888;2023-01-28T17:07:10;2.80;99.90
37642;DHT22;23486;51.956;5.888;2023-01-28T17:09:36;2.90;99.90
37642;DHT22;23486;51.956;5.888;2023-01-28T17:12:02;2.90;99.90
37642;DHT22;23486;51.956;5.888;2023-01-28T17:14:31;2.90;99.90
37642;DHT22;23486;51.956;5.888;2023-01-28T17:16:57;3.00;99.90
37642;DHT22;23486;51.956;5.888;2023-01-28T17:19:22;3.00;99.90
37642;DHT22;23486;51.956;5.888;2023-01-28T17:21:48;3.10;99.90
37642;DHT22;23486;51.956;5.888;2023-01-28T17:24:13;3.10;99.90
37642;DHT22;23486;51.956;5.888;2023-01-28T17:26:39;3.20;99.90
37642;DHT22;23486;51.956;5.888;2023-01-28T17:29:06;3.20;99.90
37642;DHT22;23486;51.956;5.888;2023-01-28T17:31:33;3.20;99.90
37642;DHT22;23486;51.956;5.888;2023-01-28T17:33:59;3.20;99.90
37642;DHT22;23486;51.956;5.888;2023-01-28T17:36:26;3.20;99.90
37642;DHT22;23486;51.956;5.888;2023-01-28T17:38:55;3.20;99.90
37642;DHT22;23486;51.956;5.888;2023-01-28T17:41:23;3.20;99.90
37642;DHT22;23486;51.956;5.888;2023-01-28T17:43:53;3.20;99.90
37642;DHT22;23486;51.956;5.888;2023-01-28T17:46:20;3.20;99.90
37642;DHT22;23486;51.956;5.888;2023-01-28T17:48:45;3.20;99.90
37642;DHT22;23486;51.956;5.888;2023-01-28T17:51:12;3.20;99.90
37642;DHT22;23486;51.956;5.888;2023-01-28T17:53:38;3.20;99.90
37642;DHT22;23486;51.956;5.888;2023-01-28T17:56:04;3.20;99.90
37642;DHT22;23486;51.956;5.888;2023-01-28T17:58:30;3.20;99.90
37642;DHT22;23486;51.956;5.888;2023-01-28T18:01:07;3.20;99.90
37642;DHT22;23486;51.956;5.888;2023-01-28T18:03:34;3.20;99.90
37642;DHT22;23486;51.956;5.888;2023-01-28T18:05:59;3.20;99.90
37642;DHT22;23486;51.956;5.888;2023-01-28T18:08:25;3.20;99.90
37642;DHT22;23486;51.956;5.888;2023-01-28T18:10:51;3.20;99.90
37642;DHT22;23486;51.956;5.888;2023-01-28T18:13:17;3.20;99.90
37642;DHT22;23486;51.956;5.888;2023-01-28T18:15:42;3.20;99.90
37642;DHT22;23486;51.956;5.888;2023-01-28T18:18:08;3.20;99.90
37642;DHT22;23486;51.956;5.888;2023-01-28T18:20:33;3.20;99.90